createdAt,value
2019-02-06T00:01:19.234Z,101589.71
2019-02-06T00:03:48.563Z,101600.54
2019-02-06T00:06:17.907Z,101598.36
2019-02-06T00:08:47.248Z,101566.30
2019-02-06T00:11:16.605Z,101587.11
2019-02-06T00:13:45.944Z,101605.32
2019-02-06T00:16:15.720Z,101598.36
2019-02-06T00:18:45.133Z,101553.30
2019-02-06T00:21:14.630Z,101598.36
2019-02-06T00:23:43.967Z,101602.27
2019-02-06T00:26:14.199Z,101604.44
2019-02-06T00:28:43.523Z,101571.07
2019-02-06T00:31:13.397Z,101621.36
2019-02-06T00:33:42.781Z,101613.97
2019-02-06T00:36:12.228Z,101627.44
2019-02-06T00:38:41.572Z,101633.94
2019-02-06T00:41:11.131Z,101625.26
2019-02-06T00:43:40.523Z,101623.53
2019-02-06T00:46:09.972Z,101636.55
2019-02-06T00:48:39.398Z,101626.14
2019-02-06T00:51:08.846Z,101636.54
2019-02-06T00:53:38.169Z,101609.64
2019-02-06T00:56:26.779Z,101639.56
2019-02-06T00:58:56.200Z,101635.66
2019-02-06T01:01:25.685Z,101627.01
2019-02-06T01:03:55.257Z,101630.45
2019-02-06T01:06:24.953Z,101630.45
2019-02-06T01:08:54.288Z,101639.56
2019-02-06T01:11:23.787Z,101637.42
2019-02-06T01:13:53.228Z,101634.81
2019-02-06T01:16:22.522Z,101638.27
2019-02-06T01:18:51.982Z,101641.73
2019-02-06T01:21:21.333Z,101649.55
2019-02-06T01:23:50.943Z,101655.62
2019-02-06T01:26:39.362Z,101654.75
2019-02-06T01:29:08.720Z,101654.75
2019-02-06T01:31:38.237Z,101653.45
2019-02-06T01:34:28.204Z,101649.55
2019-02-06T01:36:57.670Z,101652.14
2019-02-06T01:42:15.550Z,101651.27
2019-02-06T01:44:44.973Z,101649.55
2019-02-06T01:47:14.375Z,101653.02
2019-02-06T01:49:44.866Z,101640.43
2019-02-06T01:52:14.818Z,101645.22
2019-02-06T01:54:44.159Z,101610.07
2019-02-06T01:57:13.941Z,101658.65
2019-02-06T01:59:43.457Z,101668.17
2019-02-06T02:02:12.831Z,101666.45
2019-02-06T02:04:42.295Z,101654.31
2019-02-06T02:07:11.805Z,101642.16
2019-02-06T02:09:41.233Z,101647.81
2019-02-06T02:12:10.880Z,101644.33
2019-02-06T02:14:40.332Z,101636.53
2019-02-06T02:17:09.699Z,101628.31
2019-02-06T02:19:39.328Z,101633.05
2019-02-06T02:22:08.690Z,101643.45
2019-02-06T02:24:38.315Z,101646.93
2019-02-06T02:27:07.882Z,101653.85
2019-02-06T02:29:37.313Z,101649.53
2019-02-06T02:32:06.652Z,101646.05
2019-02-06T02:34:36.211Z,101642.60
2019-02-06T02:37:05.605Z,101644.31
2019-02-06T02:39:35.127Z,101643.02
2019-02-06T02:42:04.703Z,101643.44
2019-02-06T02:44:34.079Z,101639.11
2019-02-06T02:47:03.443Z,101635.22
2019-02-06T02:49:33.239Z,101634.34
2019-02-06T02:52:21.933Z,101641.73
2019-02-06T02:54:51.270Z,101649.53
2019-02-06T02:57:21.723Z,101654.73
2019-02-06T02:59:51.070Z,101650.41
2019-02-06T03:02:39.465Z,101642.60
2019-02-06T03:05:13.857Z,101643.02
2019-02-06T03:07:43.213Z,101607.02
2019-02-06T03:10:12.834Z,101640.42
2019-02-06T03:12:42.279Z,101643.44
2019-02-06T03:15:11.983Z,101659.93
2019-02-06T03:17:43.483Z,101653.84
2019-02-06T03:20:13.030Z,101649.52
2019-02-06T03:22:42.467Z,101646.03
2019-02-06T03:25:12.051Z,101547.59
2019-02-06T03:27:41.530Z,101635.62
2019-02-06T03:30:12.777Z,101631.31
2019-02-06T03:32:42.401Z,101635.63
2019-02-06T03:35:11.836Z,101636.94
2019-02-06T03:37:41.303Z,101632.61
2019-02-06T03:40:11.762Z,101593.13
2019-02-06T03:42:41.082Z,101636.52
2019-02-06T03:45:11.467Z,101630.02
2019-02-06T03:47:41.016Z,101627.41
2019-02-06T03:50:13.262Z,101630.89
2019-02-06T03:53:01.892Z,101623.50
2019-02-06T03:55:31.279Z,101626.98
2019-02-06T03:58:01.366Z,101625.67
2019-02-06T04:00:30.728Z,101620.47
2019-02-06T04:03:00.243Z,101616.98
2019-02-06T04:05:29.600Z,101622.20
2019-02-06T04:07:59.054Z,101617.42
2019-02-06T04:10:28.470Z,101616.99
2019-02-06T04:12:59.775Z,101613.97
2019-02-06T04:15:29.128Z,101609.61
2019-02-06T04:17:58.548Z,101610.48
2019-02-06T04:20:27.924Z,101617.86
2019-02-06T04:22:57.447Z,101610.48
2019-02-06T04:25:26.803Z,101606.16
2019-02-06T04:27:56.387Z,101600.96
2019-02-06T04:30:25.740Z,101600.08
2019-02-06T04:32:55.618Z,101597.48
2019-02-06T04:35:24.963Z,101551.06
2019-02-06T04:37:54.740Z,101597.48
2019-02-06T04:40:24.120Z,101596.60
2019-02-06T04:45:47.620Z,101572.36
2019-02-06T04:48:17.297Z,101570.59
2019-02-06T04:50:46.662Z,101525.50
2019-02-06T04:53:16.030Z,101570.61
2019-02-06T04:55:45.368Z,101558.45
2019-02-06T04:58:15.022Z,101559.33
2019-02-06T05:00:44.477Z,101559.33
2019-02-06T05:03:14.174Z,101548.05
2019-02-06T05:05:43.586Z,101543.73
2019-02-06T05:08:13.534Z,101544.61
2019-02-06T05:10:42.941Z,101478.70
2019-02-06T05:13:12.639Z,101542.86
2019-02-06T05:15:41.988Z,101527.25
2019-02-06T05:18:11.717Z,101545.46
2019-02-06T05:20:42.160Z,101501.23
2019-02-06T05:23:12.077Z,101539.41
2019-02-06T05:25:41.452Z,101525.51
2019-02-06T05:28:11.276Z,101534.63
2019-02-06T05:30:40.674Z,101535.05
2019-02-06T05:33:10.815Z,101528.13
2019-02-06T05:35:40.142Z,101532.44
2019-02-06T05:38:09.824Z,101530.71
2019-02-06T05:40:39.214Z,101462.26
2019-02-06T05:43:29.346Z,101521.19
2019-02-06T05:45:58.850Z,101510.80
2019-02-06T05:48:28.138Z,101481.32
2019-02-06T05:50:57.528Z,101502.13
2019-02-06T05:53:26.903Z,101506.44
2019-02-06T05:55:56.623Z,101500.41
2019-02-06T05:58:26.705Z,101500.83
2019-02-06T06:01:35.613Z,101499.10
2019-02-06T06:04:06.008Z,101495.20
2019-02-06T06:06:44.768Z,101497.34
2019-02-06T06:09:17.573Z,101493.44
2019-02-06T06:11:49.524Z,101494.31
2019-02-06T06:14:19.578Z,101495.20
2019-02-06T06:19:38.374Z,101488.70
2019-02-06T06:22:08.868Z,101484.80
2019-02-06T06:24:38.993Z,101446.65
2019-02-06T06:27:08.860Z,101469.19
2019-02-06T06:29:38.299Z,101465.27
2019-02-06T06:32:08.089Z,101494.31
2019-02-06T06:34:38.034Z,101492.16
2019-02-06T06:37:07.722Z,101486.95
2019-02-06T06:39:39.082Z,101477.86
2019-02-06T06:42:08.823Z,101477.86
2019-02-06T06:44:38.329Z,101470.91
2019-02-06T06:47:07.816Z,101416.31
2019-02-06T06:49:38.327Z,101466.58
2019-02-06T06:52:07.787Z,101465.70
2019-02-06T06:54:40.390Z,101476.97
2019-02-06T07:02:53.765Z,101464.86
2019-02-06T07:05:24.809Z,101468.75
2019-02-06T07:07:55.694Z,101467.45
2019-02-06T07:10:45.464Z,101447.05
2019-02-06T07:13:15.297Z,101478.69
2019-02-06T07:15:50.872Z,101473.50
2019-02-06T07:18:22.240Z,101485.20
2019-02-06T07:21:10.711Z,101478.28
2019-02-06T07:26:41.788Z,101475.28
2019-02-06T07:29:30.734Z,101483.05
2019-02-06T07:32:00.473Z,101477.42
2019-02-06T07:34:32.695Z,101480.03
2019-02-06T07:37:02.067Z,101478.31
2019-02-06T07:39:31.798Z,101486.53
2019-02-06T07:42:20.160Z,101487.41
2019-02-06T07:44:49.551Z,101487.41
2019-02-06T07:47:19.009Z,101482.64
2019-02-06T07:49:48.537Z,101470.07
2019-02-06T07:52:17.933Z,101483.95
2019-02-06T07:54:47.260Z,101493.47
2019-02-06T07:57:16.631Z,101496.07
2019-02-06T07:59:46.116Z,101492.63
2019-02-06T08:04:58.724Z,101491.76
2019-02-06T08:07:46.991Z,101495.23
2019-02-06T08:10:38.964Z,101490.88
2019-02-06T08:13:08.327Z,101484.80
2019-02-06T08:15:38.175Z,101483.08
2019-02-06T08:18:07.774Z,101437.17
2019-02-06T08:23:19.860Z,101463.16
2019-02-06T08:25:49.650Z,101460.09
2019-02-06T08:28:19.272Z,101430.25
2019-02-06T08:30:49.042Z,101462.27
2019-02-06T08:33:18.449Z,101454.46
2019-02-06T08:35:48.121Z,101450.55
2019-02-06T08:38:17.441Z,101443.17
2019-02-06T08:40:47.640Z,101446.23
2019-02-06T08:43:16.989Z,101434.51
2019-02-06T08:45:46.624Z,101427.13
2019-02-06T08:48:15.975Z,101404.16
2019-02-06T08:50:45.914Z,101424.92
2019-02-06T08:53:15.245Z,101379.03
2019-02-06T08:55:44.687Z,101416.20
2019-02-06T08:58:14.072Z,101410.14
2019-02-06T09:00:43.610Z,101409.25
2019-02-06T09:03:13.276Z,101381.55
2019-02-06T09:05:42.832Z,101407.06
2019-02-06T09:08:14.612Z,101367.67
2019-02-06T09:10:43.958Z,101407.03
2019-02-06T09:13:14.637Z,101396.17
2019-02-06T09:18:51.770Z,101392.69
2019-02-06T09:21:21.101Z,101393.14
2019-02-06T09:23:50.977Z,101393.13
2019-02-06T09:26:20.348Z,101400.48
2019-02-06T09:28:50.056Z,101401.77
2019-02-06T09:31:19.462Z,101390.05
2019-02-06T09:33:49.278Z,101382.23
2019-02-06T09:36:18.641Z,101378.73
2019-02-06T09:38:48.290Z,101377.41
2019-02-06T09:41:17.697Z,101375.25
2019-02-06T09:43:47.146Z,101363.05
2019-02-06T09:46:16.485Z,101366.96
2019-02-06T09:48:46.196Z,101360.41
2019-02-06T09:51:15.541Z,101356.95
2019-02-06T09:56:20.314Z,101361.27
2019-02-06T09:58:49.721Z,101260.53
2019-02-06T10:01:21.357Z,101362.92
2019-02-06T10:03:50.218Z,101357.27
2019-02-06T10:09:23.209Z,101357.69
2019-02-06T10:11:53.056Z,101346.39
2019-02-06T10:14:41.493Z,101349.84
2019-02-06T10:17:10.907Z,101352.88
2019-02-06T10:19:42.426Z,101320.45
2019-02-06T10:22:11.480Z,101344.16
2019-02-06T10:24:41.217Z,101337.64
2019-02-06T10:29:45.098Z,101343.69
2019-02-06T10:32:14.639Z,101331.56
2019-02-06T10:34:43.968Z,101326.80
2019-02-06T10:37:13.326Z,101328.94
2019-02-06T10:39:42.751Z,101316.84
2019-02-06T10:42:14.023Z,101312.91
2019-02-06T10:44:43.401Z,101313.80
2019-02-06T10:47:12.993Z,101296.03
2019-02-06T10:49:42.327Z,101297.31
2019-02-06T10:52:12.021Z,101289.05
2019-02-06T10:54:41.342Z,101279.91
2019-02-06T10:57:12.630Z,101271.26
2019-02-06T10:59:41.941Z,101224.18
2019-02-06T11:02:11.786Z,101256.05
2019-02-06T11:04:41.160Z,101228.44
2019-02-06T11:07:10.850Z,101243.91
2019-02-06T11:09:45.950Z,101169.23
2019-02-06T11:12:11.312Z,101214.39
2019-02-06T11:14:40.727Z,101226.11
2019-02-06T11:17:10.201Z,101215.66
2019-02-06T11:19:39.560Z,101209.58
2019-02-06T11:22:08.894Z,101210.90
2019-02-06T11:24:38.250Z,101204.88
2019-02-06T11:27:07.877Z,101201.36
2019-02-06T11:29:37.762Z,101189.23
2019-02-06T11:32:07.128Z,101196.13
2019-02-06T11:34:36.481Z,101187.36
2019-02-06T11:37:24.736Z,101186.91
2019-02-06T11:39:58.157Z,101177.74
2019-02-06T11:42:25.198Z,101175.91
2019-02-06T11:44:54.613Z,101162.77
2019-02-06T11:47:24.040Z,101166.20
2019-02-06T11:50:12.794Z,101168.84
2019-02-06T11:52:42.153Z,101164.09
2019-02-06T11:55:14.423Z,101160.20
2019-02-06T11:58:03.075Z,101147.55
2019-02-06T12:01:10.453Z,101144.56
2019-02-06T12:03:40.207Z,101135.44
2019-02-06T12:06:09.887Z,101131.57
2019-02-06T12:08:40.665Z,101123.27
2019-02-06T12:13:58.403Z,101108.08
2019-02-06T12:16:28.154Z,101105.94
2019-02-06T12:19:17.173Z,101102.03
2019-02-06T12:21:46.477Z,101095.87
2019-02-06T12:24:16.049Z,101090.73
2019-02-06T12:26:45.424Z,101093.26
2019-02-06T12:29:16.563Z,101083.73
2019-02-06T12:31:45.896Z,101078.14
2019-02-06T12:34:15.323Z,101077.27
2019-02-06T12:36:44.720Z,101082.02
2019-02-06T12:39:14.492Z,101075.95
2019-02-06T12:41:43.815Z,101075.50
2019-02-06T12:44:13.516Z,101061.20
2019-02-06T12:46:44.714Z,101020.34
2019-02-06T12:49:14.692Z,101063.00
2019-02-06T12:51:45.258Z,101045.64
2019-02-06T12:54:14.554Z,101049.97
2019-02-06T12:56:44.262Z,101041.26
2019-02-06T13:02:01.877Z,101027.45
2019-02-06T13:04:31.189Z,101025.74
2019-02-06T13:07:00.573Z,101024.96
2019-02-06T13:09:30.106Z,101020.13
2019-02-06T13:11:59.411Z,101012.33
2019-02-06T13:14:28.842Z,101008.39
2019-02-06T13:16:58.229Z,101004.90
2019-02-06T13:19:27.601Z,101000.56
2019-02-06T13:21:56.895Z,100998.83
2019-02-06T13:24:26.223Z,100993.64
2019-02-06T13:27:14.594Z,100983.23
2019-02-06T13:29:44.227Z,100976.28
2019-02-06T13:32:13.573Z,100946.13
2019-02-06T13:34:42.884Z,100975.38
2019-02-06T13:37:12.232Z,100978.02
2019-02-06T13:39:43.287Z,100953.27
2019-02-06T13:42:12.960Z,100951.14
2019-02-06T13:44:42.316Z,100950.27
2019-02-06T13:47:11.664Z,100889.93
2019-02-06T13:50:00.185Z,100935.53
2019-02-06T13:52:48.480Z,100929.50
2019-02-06T13:55:18.477Z,100924.74
2019-02-06T14:01:01.654Z,100923.90
2019-02-06T14:03:31.031Z,100921.73
2019-02-06T14:06:00.503Z,100912.17
2019-02-06T14:08:30.205Z,100910.05
2019-02-06T14:11:00.898Z,100895.70
2019-02-06T14:13:30.716Z,100895.68
2019-02-06T14:16:00.357Z,100885.77
2019-02-06T14:18:29.705Z,100889.58
2019-02-06T14:20:59.412Z,100887.02
2019-02-06T14:23:32.922Z,100817.40
2019-02-06T14:26:40.273Z,100875.25
2019-02-06T14:29:48.031Z,100875.25
2019-02-06T14:32:55.527Z,100864.47
2019-02-06T14:36:03.097Z,100859.40
2019-02-06T14:39:10.459Z,100864.01
2019-02-06T14:42:17.806Z,100856.70
2019-02-06T14:45:10.829Z,100848.41
2019-02-06T14:48:05.236Z,100847.56
2019-02-06T14:51:12.622Z,100782.19
2019-02-06T14:54:04.360Z,100847.13
2019-02-06T14:57:11.859Z,100818.16
2019-02-06T15:00:02.113Z,100818.16
2019-02-06T15:03:09.452Z,100836.27
2019-02-06T15:06:16.803Z,100823.66
2019-02-06T15:09:18.658Z,100814.98
2019-02-06T15:12:26.078Z,100818.45
2019-02-06T15:15:21.411Z,100818.84
2019-02-06T15:18:28.755Z,100819.25
2019-02-06T15:21:21.290Z,100809.23
2019-02-06T15:24:28.714Z,100805.33
2019-02-06T15:27:36.029Z,100782.92
2019-02-06T15:30:43.438Z,100800.96
2019-02-06T15:33:53.464Z,100795.72
2019-02-06T15:37:00.263Z,100794.85
2019-02-06T15:40:07.610Z,100784.44
2019-02-06T15:42:59.071Z,100780.99
2019-02-06T15:45:54.232Z,100779.25
2019-02-06T15:48:48.935Z,100784.44
2019-02-06T15:51:59.200Z,100774.42
2019-02-06T15:55:06.598Z,100770.52
2019-02-06T15:57:59.615Z,100768.40
2019-02-06T16:01:06.993Z,100760.09
2019-02-06T16:04:24.423Z,100757.98
2019-02-06T16:07:31.968Z,100753.66
2019-02-06T16:10:29.117Z,100759.33
2019-02-06T16:13:36.547Z,100745.87
2019-02-06T16:16:44.035Z,100748.83
2019-02-06T16:19:36.343Z,100744.45
2019-02-06T16:22:35.428Z,100737.95
2019-02-06T16:25:42.910Z,100742.73
2019-02-06T16:28:50.341Z,100735.34
2019-02-06T16:31:43.780Z,100738.39
2019-02-06T16:34:35.291Z,100733.13
2019-02-06T16:37:39.318Z,100682.36
2019-02-06T16:40:46.638Z,100720.50
2019-02-06T16:43:54.445Z,100718.73
2019-02-06T16:47:01.756Z,100722.59
2019-02-06T16:50:09.058Z,100711.27
2019-02-06T16:53:16.471Z,100714.72
2019-02-06T16:56:23.772Z,100725.89
2019-02-06T16:59:31.201Z,100719.33
2019-02-06T17:02:33.336Z,100708.44
2019-02-06T17:05:36.201Z,100722.30
2019-02-06T17:08:29.330Z,100721.35
2019-02-06T17:11:20.769Z,100718.51
2019-02-06T17:14:28.154Z,100706.31
2019-02-06T17:17:23.023Z,100702.31
2019-02-06T17:20:45.576Z,100711.03
2019-02-06T17:23:46.221Z,100699.80
2019-02-06T17:26:53.693Z,100711.50
2019-02-06T17:30:01.009Z,100707.96
2019-02-06T17:33:08.637Z,100709.73
2019-02-06T17:36:15.989Z,100711.44
2019-02-06T17:39:24.434Z,100706.16
2019-02-06T17:42:25.872Z,100705.36
2019-02-06T17:45:18.018Z,100660.28
2019-02-06T17:48:18.445Z,100705.23
2019-02-06T17:51:14.319Z,100700.02
2019-02-06T17:54:14.643Z,100686.08
2019-02-06T17:56:44.267Z,100683.03
2019-02-06T17:59:13.701Z,100679.06
2019-02-06T18:01:46.794Z,100663.39
2019-02-06T18:04:22.565Z,100666.80
2019-02-06T18:06:51.861Z,100659.41
2019-02-06T18:09:21.570Z,100658.94
2019-02-06T18:12:31.216Z,100604.84
2019-02-06T18:15:00.760Z,100657.58
2019-02-06T18:17:30.090Z,100659.69
2019-02-06T18:19:59.496Z,100647.48
2019-02-06T18:22:28.937Z,100630.66
2019-02-06T18:24:58.302Z,100640.45
2019-02-06T18:27:27.792Z,100596.73
2019-02-06T18:29:57.651Z,100652.06
2019-02-06T18:32:27.015Z,100655.09
2019-02-06T18:34:56.397Z,100647.61
2019-02-06T18:37:25.722Z,100644.53
2019-02-06T18:39:55.089Z,100643.63
2019-02-06T18:42:24.436Z,100646.64
2019-02-06T18:44:53.925Z,100640.08
2019-02-06T18:47:25.375Z,100628.91
2019-02-06T18:49:56.401Z,100645.19
2019-02-06T18:52:26.281Z,100646.03
2019-02-06T18:54:55.672Z,100643.34
2019-02-06T18:57:25.332Z,100641.54
2019-02-06T18:59:55.023Z,100642.84
2019-02-06T19:02:24.912Z,100643.28
2019-02-06T19:04:54.415Z,100647.55
2019-02-06T19:07:24.554Z,100645.75
2019-02-06T19:09:54.192Z,100583.14
2019-02-06T19:12:23.888Z,100636.03
2019-02-06T19:14:53.398Z,100649.91
2019-02-06T19:17:35.341Z,100648.21
2019-02-06T19:19:54.289Z,100638.57
2019-02-06T19:22:23.728Z,100636.80
2019-02-06T19:24:53.423Z,100632.12
2019-02-06T19:27:22.815Z,100636.72
2019-02-06T19:30:11.212Z,100630.52
2019-02-06T19:32:59.641Z,100636.17
2019-02-06T19:38:24.386Z,100624.28
2019-02-06T19:40:53.758Z,100623.30
2019-02-06T19:43:23.566Z,100623.30
2019-02-06T19:45:52.959Z,100618.94
2019-02-06T19:48:22.988Z,100616.30
2019-02-06T19:50:52.870Z,100621.45
2019-02-06T19:53:22.230Z,100611.88
2019-02-06T19:55:51.928Z,100616.06
2019-02-06T19:58:21.449Z,100608.19
2019-02-06T20:00:52.867Z,100609.02
2019-02-06T20:03:22.368Z,100604.62
2019-02-06T20:05:52.257Z,100603.80
2019-02-06T20:08:21.718Z,100598.54
2019-02-06T20:10:51.383Z,100612.47
2019-02-06T20:13:20.837Z,100568.30
2019-02-06T20:16:10.715Z,100604.62
2019-02-06T20:18:40.593Z,100604.95
2019-02-06T20:21:30.406Z,100609.77
2019-02-06T20:24:01.975Z,100553.75
2019-02-06T20:26:51.029Z,100608.00
2019-02-06T20:29:20.620Z,100613.69
2019-02-06T20:31:50.159Z,100622.83
2019-02-06T20:34:28.631Z,100624.53
2019-02-06T20:36:58.121Z,100614.09
2019-02-06T20:39:29.688Z,100624.53
2019-02-06T20:41:59.280Z,100616.70
2019-02-06T20:44:29.837Z,100621.09
2019-02-06T20:47:00.419Z,100537.64
2019-02-06T20:49:30.237Z,100623.23
2019-02-06T20:52:00.237Z,100620.62
2019-02-06T20:54:30.181Z,100620.14
2019-02-06T20:57:00.027Z,100614.02
2019-02-06T20:59:29.501Z,100619.71
2019-02-06T21:01:59.045Z,100625.33
2019-02-06T21:04:28.707Z,100623.55
2019-02-06T21:06:58.643Z,100630.52
2019-02-06T21:09:28.061Z,100630.39
2019-02-06T21:14:47.153Z,100625.12
2019-02-06T21:17:18.536Z,100626.44
2019-02-06T21:19:48.010Z,100619.83
2019-02-06T21:22:17.430Z,100634.19
2019-02-06T21:24:47.788Z,100625.05
2019-02-06T21:27:17.221Z,100631.46
2019-02-06T21:34:57.947Z,100630.75
2019-02-06T21:37:27.377Z,100624.45
2019-02-06T21:39:58.673Z,100623.48
2019-02-06T21:42:28.158Z,100605.48
2019-02-06T21:44:58.840Z,100628.63
2019-02-06T21:47:29.110Z,100631.25
2019-02-06T21:49:58.605Z,100631.16
2019-02-06T21:52:28.630Z,100627.59
2019-02-06T21:54:58.039Z,100626.25
2019-02-06T21:57:27.734Z,100631.00
2019-02-06T21:59:57.169Z,100637.93
2019-02-06T22:02:27.132Z,100628.38
2019-02-06T22:04:56.506Z,100631.79
2019-02-06T22:07:26.016Z,100636.22
2019-02-06T22:09:56.416Z,100633.09
2019-02-06T22:12:26.488Z,100633.18
2019-02-06T22:14:55.877Z,100633.69
2019-02-06T22:17:25.780Z,100625.42
2019-02-06T22:19:55.242Z,100577.95
2019-02-06T22:22:24.731Z,100626.41
2019-02-06T22:24:54.054Z,100631.64
2019-02-06T22:27:23.788Z,100637.78
2019-02-06T22:30:13.511Z,100636.05
2019-02-06T22:32:42.918Z,100632.12
2019-02-06T22:35:12.337Z,100633.86
2019-02-06T22:37:43.853Z,100619.97
2019-02-06T22:40:15.536Z,100629.52
2019-02-06T22:45:34.142Z,100629.52
2019-02-06T22:48:05.433Z,100625.19
2019-02-06T22:50:35.326Z,100626.11
2019-02-06T22:53:04.822Z,100626.98
2019-02-06T22:55:34.319Z,100631.33
2019-02-06T22:58:22.703Z,100619.42
2019-02-06T23:01:30.185Z,100637.86
2019-02-06T23:04:00.035Z,100632.64
2019-02-06T23:06:48.282Z,100631.45
2019-02-06T23:09:17.796Z,100629.52
2019-02-06T23:11:47.487Z,100625.19
2019-02-06T23:14:18.451Z,100622.50
2019-02-06T23:16:48.037Z,100614.66
2019-02-06T23:19:17.505Z,100608.61
2019-02-06T23:21:47.812Z,100627.72
2019-02-06T23:24:17.173Z,100619.88
2019-02-06T23:26:46.684Z,100586.41
2019-02-06T23:29:16.265Z,100618.97
2019-02-06T23:31:45.629Z,100612.05
2019-02-06T23:34:15.196Z,100582.09
2019-02-06T23:36:44.917Z,100613.31
2019-02-06T23:39:33.356Z,100612.87
2019-02-06T23:42:02.964Z,100624.16
2019-02-06T23:44:32.331Z,100628.95
2019-02-06T23:47:02.140Z,100629.34
2019-02-06T23:49:31.556Z,100625.94
2019-02-06T23:52:01.023Z,100625.11
2019-02-06T23:54:30.423Z,100626.89
2019-02-06T23:57:18.764Z,100627.37
2019-02-06T23:59:48.140Z,100627.89
